sensor_id;sensor_type;location;lat;lon;timestamp;P1;durP1;ratioP1;P2;durP2;ratioP2
33644;SDS011;19986;48.190;16.366;2024-03-23T00:54:26;43.92;;;41.22;;
33644;SDS011;19986;48.190;16.366;2024-03-23T00:56:52;43.67;;;41.05;;
33644;SDS011;19986;48.190;16.366;2024-03-23T00:59:18;46.33;;;43.72;;
33644;SDS011;19986;48.190;16.366;2024-03-23T01:01:44;45.75;;;43.05;;
33644;SDS011;19986;48.190;16.366;2024-03-23T01:04:12;45.00;;;42.15;;
33644;SDS011;19986;48.190;16.366;2024-03-23T01:06:41;43.25;;;40.65;;
33644;SDS011;19986;48.190;16.366;2024-03-23T01:09:07;44.30;;;41.40;;
33644;SDS011;19986;48.190;16.366;2024-03-23T01:11:36;45.50;;;42.78;;
33644;SDS011;19986;48.190;16.366;2024-03-23T01:14:03;47.78;;;44.28;;
33644;SDS011;19986;48.190;16.366;2024-03-23T01:16:30;47.42;;;44.33;;
33644;SDS011;19986;48.190;16.366;2024-03-23T01:18:58;46.65;;;43.85;;
33644;SDS011;19986;48.190;16.366;2024-03-23T01:21:24;46.38;;;43.53;;
33644;SDS011;19986;48.190;16.366;2024-03-23T01:23:50;47.38;;;44.30;;
33644;SDS011;19986;48.190;16.366;2024-03-23T01:26:20;46.28;;;43.15;;
33644;SDS011;19986;48.190;16.366;2024-03-23T01:28:48;42.80;;;40.13;;
33644;SDS011;19986;48.190;16.366;2024-03-23T01:31:15;44.30;;;41.70;;
33644;SDS011;19986;48.190;16.366;2024-03-23T01:33:42;43.72;;;40.75;;
33644;SDS011;19986;48.190;16.366;2024-03-23T01:36:10;44.08;;;41.47;;
33644;SDS011;19986;48.190;16.366;2024-03-23T01:38:39;48.47;;;45.53;;
33644;SDS011;19986;48.190;16.366;2024-03-23T01:41:06;47.67;;;44.75;;
33644;SDS011;19986;48.190;16.366;2024-03-23T01:43:32;45.55;;;42.88;;
33644;SDS011;19986;48.190;16.366;2024-03-23T01:46:00;44.63;;;41.90;;
33644;SDS011;19986;48.190;16.366;2024-03-23T01:48:27;46.25;;;43.53;;
33644;SDS011;19986;48.190;16.366;2024-03-23T01:50:53;45.58;;;43.00;;
33644;SDS011;19986;48.190;16.366;2024-03-23T01:53:20;44.92;;;42.08;;
33644;SDS011;19986;48.190;16.366;2024-03-23T01:55:49;45.92;;;43.22;;
33644;SDS011;19986;48.190;16.366;2024-03-23T01:58:17;46.67;;;43.88;;
33644;SDS011;19986;48.190;16.366;2024-03-23T02:00:46;44.97;;;42.17;;
33644;SDS011;19986;48.190;16.366;2024-03-23T02:03:28;48.55;;;45.65;;
33644;SDS011;19986;48.190;16.366;2024-03-23T02:05:54;47.47;;;44.45;;
33644;SDS011;19986;48.190;16.366;2024-03-23T02:08:22;45.97;;;43.28;;
33644;SDS011;19986;48.190;16.366;2024-03-23T02:10:50;45.50;;;42.78;;
33644;SDS011;19986;48.190;16.366;2024-03-23T02:13:17;45.88;;;43.00;;
33644;SDS011;19986;48.190;16.366;2024-03-23T02:15:46;47.75;;;44.78;;
33644;SDS011;19986;48.190;16.366;2024-03-23T02:18:16;47.50;;;44.60;;
33644;SDS011;19986;48.190;16.366;2024-03-23T02:20:43;46.63;;;43.67;;
33644;SDS011;19986;48.190;16.366;2024-03-23T02:23:13;45.20;;;42.25;;
33644;SDS011;19986;48.190;16.366;2024-03-23T02:25:41;47.78;;;45.08;;
33644;SDS011;19986;48.190;16.366;2024-03-23T02:28:08;46.20;;;43.55;;
33644;SDS011;19986;48.190;16.366;2024-03-23T02:30:34;45.40;;;42.60;;
33644;SDS011;19986;48.190;16.366;2024-03-23T02:33:00;46.80;;;43.72;;
33644;SDS011;19986;48.190;16.366;2024-03-23T02:35:27;46.83;;;44.13;;
33644;SDS011;19986;48.190;16.366;2024-03-23T02:37:56;47.80;;;45.10;;
33644;SDS011;19986;48.190;16.366;2024-03-23T02:40:23;46.15;;;43.45;;
33644;SDS011;19986;48.190;16.366;2024-03-23T02:42:51;47.40;;;44.50;;
33644;SDS011;19986;48.190;16.366;2024-03-23T02:45:18;45.78;;;43.17;;
33644;SDS011;19986;48.190;16.366;2024-03-23T02:47:45;45.85;;;43.05;;
33644;SDS011;19986;48.190;16.366;2024-03-23T02:50:19;46.75;;;43.90;;
33644;SDS011;19986;48.190;16.366;2024-03-23T02:52:49;44.25;;;41.70;;
33644;SDS011;19986;48.190;16.366;2024-03-23T02:55:16;47.28;;;44.47;;
33644;SDS011;19986;48.190;16.366;2024-03-23T02:57:43;44.75;;;41.97;;
33644;SDS011;19986;48.190;16.366;2024-03-23T03:00:11;47.45;;;44.67;;
33644;SDS011;19986;48.190;16.366;2024-03-23T03:02:40;45.95;;;43.20;;
33644;SDS011;19986;48.190;16.366;2024-03-23T03:05:07;43.80;;;41.40;;
33644;SDS011;19986;48.190;16.366;2024-03-23T03:07:34;43.10;;;40.45;;
33644;SDS011;19986;48.190;16.366;2024-03-23T03:10:00;47.88;;;44.78;;
33644;SDS011;19986;48.190;16.366;2024-03-23T03:12:27;46.95;;;44.17;;
33644;SDS011;19986;48.190;16.366;2024-03-23T03:14:55;43.70;;;40.95;;
33644;SDS011;19986;48.190;16.366;2024-03-23T03:17:24;46.28;;;43.47;;
33644;SDS011;19986;48.190;16.366;2024-03-23T03:19:50;44.38;;;41.75;;
33644;SDS011;19986;48.190;16.366;2024-03-23T03:22:21;44.28;;;41.70;;
33644;SDS011;19986;48.190;16.366;2024-03-23T03:24:50;43.92;;;41.33;;
33644;SDS011;19986;48.190;16.366;2024-03-23T03:27:16;44.83;;;42.20;;
33644;SDS011;19986;48.190;16.366;2024-03-23T03:29:42;42.80;;;40.35;;
33644;SDS011;19986;48.190;16.366;2024-03-23T03:32:08;43.17;;;40.75;;
33644;SDS011;19986;48.190;16.366;2024-03-23T03:34:34;46.90;;;44.30;;
33644;SDS011;19986;48.190;16.366;2024-03-23T03:37:00;43.15;;;40.78;;
33644;SDS011;19986;48.190;16.366;2024-03-23T03:39:26;44.85;;;42.35;;
33644;SDS011;19986;48.190;16.366;2024-03-23T03:41:55;41.42;;;38.97;;
33644;SDS011;19986;48.190;16.366;2024-03-23T03:44:21;44.53;;;42.13;;
33644;SDS011;19986;48.190;16.366;2024-03-23T03:46:47;43.28;;;40.88;;
33644;SDS011;19986;48.190;16.366;2024-03-23T03:49:16;43.60;;;41.20;;
33644;SDS011;19986;48.190;16.366;2024-03-23T03:51:42;45.60;;;42.88;;
33644;SDS011;19986;48.190;16.366;2024-03-23T03:54:09;44.25;;;41.75;;
33644;SDS011;19986;48.190;16.366;2024-03-23T03:56:35;45.58;;;42.38;;
33644;SDS011;19986;48.190;16.366;2024-03-23T03:59:06;42.78;;;39.88;;
33644;SDS011;19986;48.190;16.366;2024-03-23T04:01:32;44.88;;;42.47;;
33644;SDS011;19986;48.190;16.366;2024-03-23T04:03:59;44.35;;;41.78;;
33644;SDS011;19986;48.190;16.366;2024-03-23T04:06:28;43.03;;;40.50;;
33644;SDS011;19986;48.190;16.366;2024-03-23T04:08:54;44.72;;;42.33;;
33644;SDS011;19986;48.190;16.366;2024-03-23T04:11:20;43.97;;;41.60;;
33644;SDS011;19986;48.190;16.366;2024-03-23T04:13:46;46.03;;;43.38;;
33644;SDS011;19986;48.190;16.366;2024-03-23T04:16:24;46.40;;;43.70;;
33644;SDS011;19986;48.190;16.366;2024-03-23T04:18:53;45.42;;;42.97;;
33644;SDS011;19986;48.190;16.366;2024-03-23T04:21:22;44.28;;;41.78;;
33644;SDS011;19986;48.190;16.366;2024-03-23T04:23:48;43.95;;;41.50;;
33644;SDS011;19986;48.190;16.366;2024-03-23T04:26:15;43.13;;;40.72;;
33644;SDS011;19986;48.190;16.366;2024-03-23T04:28:43;42.67;;;40.25;;
33644;SDS011;19986;48.190;16.366;2024-03-23T04:31:09;46.35;;;43.55;;
33644;SDS011;19986;48.190;16.366;2024-03-23T04:33:35;47.70;;;44.90;;
33644;SDS011;19986;48.190;16.366;2024-03-23T04:36:04;45.95;;;42.88;;
33644;SDS011;19986;48.190;16.366;2024-03-23T04:38:30;42.97;;;40.58;;
33644;SDS011;19986;48.190;16.366;2024-03-23T04:40:57;43.70;;;41.10;;
33644;SDS011;19986;48.190;16.366;2024-03-23T04:43:23;43.28;;;40.88;;
33644;SDS011;19986;48.190;16.366;2024-03-23T04:45:51;42.75;;;40.47;;
33644;SDS011;19986;48.190;16.366;2024-03-23T04:48:19;46.33;;;43.72;;
33644;SDS011;19986;48.190;16.366;2024-03-23T04:50:48;44.10;;;41.67;;
33644;SDS011;19986;48.190;16.366;2024-03-23T04:53:15;42.22;;;39.83;;
33644;SDS011;19986;48.190;16.366;2024-03-23T04:55:42;47.08;;;44.45;;
33644;SDS011;19986;48.190;16.366;2024-03-23T04:58:08;46.25;;;43.42;;
33644;SDS011;19986;48.190;16.366;2024-03-23T05:00:35;44.50;;;41.90;;
33644;SDS011;19986;48.190;16.366;2024-03-23T05:03:04;45.05;;;42.50;;
33644;SDS011;19986;48.190;16.366;2024-03-23T05:05:31;43.50;;;40.92;;
33644;SDS011;19986;48.190;16.366;2024-03-23T05:07:58;45.13;;;41.70;;
33644;SDS011;19986;48.190;16.366;2024-03-23T05:10:25;43.30;;;40.80;;
33644;SDS011;19986;48.190;16.366;2024-03-23T05:12:51;46.53;;;43.53;;
33644;SDS011;19986;48.190;16.366;2024-03-23T05:15:19;48.25;;;45.35;;
33644;SDS011;19986;48.190;16.366;2024-03-23T05:17:45;47.33;;;44.40;;
33644;SDS011;19986;48.190;16.366;2024-03-23T05:20:11;45.13;;;42.33;;
33644;SDS011;19986;48.190;16.366;2024-03-23T05:22:37;47.15;;;44.53;;
33644;SDS011;19986;48.190;16.366;2024-03-23T05:25:05;47.97;;;44.88;;
33644;SDS011;19986;48.190;16.366;2024-03-23T05:27:31;44.75;;;41.70;;
33644;SDS011;19986;48.190;16.366;2024-03-23T05:29:58;47.63;;;44.83;;
33644;SDS011;19986;48.190;16.366;2024-03-23T05:32:24;45.60;;;43.17;;
33644;SDS011;19986;48.190;16.366;2024-03-23T05:34:51;45.33;;;42.25;;
33644;SDS011;19986;48.190;16.366;2024-03-23T05:37:21;45.00;;;42.03;;
33644;SDS011;19986;48.190;16.366;2024-03-23T05:39:48;45.65;;;42.97;;
33644;SDS011;19986;48.190;16.366;2024-03-23T05:42:17;44.45;;;41.83;;
33644;SDS011;19986;48.190;16.366;2024-03-23T05:44:45;44.95;;;42.40;;
33644;SDS011;19986;48.190;16.366;2024-03-23T05:47:11;44.30;;;41.85;;
33644;SDS011;19986;48.190;16.366;2024-03-23T05:49:42;45.72;;;43.17;;
33644;SDS011;19986;48.190;16.366;2024-03-23T05:52:08;41.83;;;39.55;;
33644;SDS011;19986;48.190;16.366;2024-03-23T05:54:35;44.65;;;42.10;;
33644;SDS011;19986;48.190;16.366;2024-03-23T05:57:03;44.42;;;41.97;;
33644;SDS011;19986;48.190;16.366;2024-03-23T05:59:31;44.38;;;41.88;;
33644;SDS011;19986;48.190;16.366;2024-03-23T06:01:57;44.47;;;41.75;;
33644;SDS011;19986;48.190;16.366;2024-03-23T06:04:24;41.88;;;39.42;;
33644;SDS011;19986;48.190;16.366;2024-03-23T06:06:50;46.15;;;42.78;;
33644;SDS011;19986;48.190;16.366;2024-03-23T06:09:20;45.53;;;42.92;;
33644;SDS011;19986;48.190;16.366;2024-03-23T06:11:46;44.25;;;41.58;;
33644;SDS011;19986;48.190;16.366;2024-03-23T06:14:13;43.38;;;40.88;;
33644;SDS011;19986;48.190;16.366;2024-03-23T06:16:39;43.63;;;40.97;;
33644;SDS011;19986;48.190;16.366;2024-03-23T06:19:06;44.88;;;42.22;;
33644;SDS011;19986;48.190;16.366;2024-03-23T06:21:32;44.83;;;41.95;;
33644;SDS011;19986;48.190;16.366;2024-03-23T06:24:02;44.83;;;42.33;;
33644;SDS011;19986;48.190;16.366;2024-03-23T06:26:29;45.58;;;42.80;;
33644;SDS011;19986;48.190;16.366;2024-03-23T06:28:55;45.40;;;42.50;;
33644;SDS011;19986;48.190;16.366;2024-03-23T06:31:22;45.08;;;41.88;;
33644;SDS011;19986;48.190;16.366;2024-03-23T06:33:48;42.60;;;40.17;;
33644;SDS011;19986;48.190;16.366;2024-03-23T06:36:14;44.85;;;42.33;;
33644;SDS011;19986;48.190;16.366;2024-03-23T06:38:40;44.90;;;42.33;;
33644;SDS011;19986;48.190;16.366;2024-03-23T06:41:06;46.35;;;43.28;;
33644;SDS011;19986;48.190;16.366;2024-03-23T06:43:33;44.13;;;41.60;;
33644;SDS011;19986;48.190;16.366;2024-03-23T06:45:59;43.65;;;41.05;;
33644;SDS011;19986;48.190;16.366;2024-03-23T06:48:27;47.53;;;44.45;;
33644;SDS011;19986;48.190;16.366;2024-03-23T06:50:56;45.15;;;42.08;;
33644;SDS011;19986;48.190;16.366;2024-03-23T06:53:22;45.55;;;42.95;;
33644;SDS011;19986;48.190;16.366;2024-03-23T06:55:52;44.05;;;41.22;;
33644;SDS011;19986;48.190;16.366;2024-03-23T06:58:23;45.28;;;42.30;;
33644;SDS011;19986;48.190;16.366;2024-03-23T07:00:50;45.20;;;42.60;;
33644;SDS011;19986;48.190;16.366;2024-03-23T07:03:18;46.67;;;43.95;;
33644;SDS011;19986;48.190;16.366;2024-03-23T07:05:45;45.38;;;42.78;;
33644;SDS011;19986;48.190;16.366;2024-03-23T07:08:11;46.28;;;43.35;;
33644;SDS011;19986;48.190;16.366;2024-03-23T07:10:41;47.28;;;44.47;;
33644;SDS011;19986;48.190;16.366;2024-03-23T07:13:07;48.05;;;44.95;;
33644;SDS011;19986;48.190;16.366;2024-03-23T07:15:33;46.10;;;43.10;;
33644;SDS011;19986;48.190;16.366;2024-03-23T07:18:01;50.58;;;47.25;;
33644;SDS011;19986;48.190;16.366;2024-03-23T07:20:27;44.65;;;42.05;;
33644;SDS011;19986;48.190;16.366;2024-03-23T07:22:56;46.88;;;44.10;;
33644;SDS011;19986;48.190;16.366;2024-03-23T07:25:22;47.30;;;44.45;;
33644;SDS011;19986;48.190;16.366;2024-03-23T07:27:50;47.38;;;44.58;;
33644;SDS011;19986;48.190;16.366;2024-03-23T07:30:18;45.38;;;42.42;;
33644;SDS011;19986;48.190;16.366;2024-03-23T07:32:44;48.30;;;45.38;;
33644;SDS011;19986;48.190;16.366;2024-03-23T07:35:15;45.33;;;42.65;;
33644;SDS011;19986;48.190;16.366;2024-03-23T07:37:43;48.05;;;45.05;;
33644;SDS011;19986;48.190;16.366;2024-03-23T07:40:13;48.38;;;45.20;;
33644;SDS011;19986;48.190;16.366;2024-03-23T07:42:39;47.70;;;44.58;;
33644;SDS011;19986;48.190;16.366;2024-03-23T07:45:05;47.45;;;44.50;;
33644;SDS011;19986;48.190;16.366;2024-03-23T07:47:32;45.60;;;42.90;;
33644;SDS011;19986;48.190;16.366;2024-03-23T07:49:58;45.80;;;42.40;;
33644;SDS011;19986;48.190;16.366;2024-03-23T07:52:27;48.78;;;45.80;;
33644;SDS011;19986;48.190;16.366;2024-03-23T07:54:54;47.92;;;44.72;;
33644;SDS011;19986;48.190;16.366;2024-03-23T07:57:20;48.30;;;45.10;;
33644;SDS011;19986;48.190;16.366;2024-03-23T07:59:46;44.60;;;41.70;;
33644;SDS011;19986;48.190;16.366;2024-03-23T08:02:12;46.85;;;44.03;;
33644;SDS011;19986;48.190;16.366;2024-03-23T08:04:39;45.72;;;42.95;;
33644;SDS011;19986;48.190;16.366;2024-03-23T08:07:05;47.40;;;44.10;;
33644;SDS011;19986;48.190;16.366;2024-03-23T08:09:31;47.97;;;44.88;;
33644;SDS011;19986;48.190;16.366;2024-03-23T08:11:57;47.80;;;44.70;;
33644;SDS011;19986;48.190;16.366;2024-03-23T08:14:23;47.80;;;44.72;;
33644;SDS011;19986;48.190;16.366;2024-03-23T08:16:49;49.90;;;46.72;;
33644;SDS011;19986;48.190;16.366;2024-03-23T08:19:16;47.10;;;44.00;;
33644;SDS011;19986;48.190;16.366;2024-03-23T08:21:43;47.55;;;44.53;;
33644;SDS011;19986;48.190;16.366;2024-03-23T08:24:09;47.38;;;44.22;;
33644;SDS011;19986;48.190;16.366;2024-03-23T08:26:34;49.70;;;46.40;;
33644;SDS011;19986;48.190;16.366;2024-03-23T08:29:03;44.08;;;41.47;;
33644;SDS011;19986;48.190;16.366;2024-03-23T08:31:29;45.75;;;42.75;;
33644;SDS011;19986;48.190;16.366;2024-03-23T08:33:55;45.45;;;42.75;;
33644;SDS011;19986;48.190;16.366;2024-03-23T08:36:21;46.13;;;43.35;;
33644;SDS011;19986;48.190;16.366;2024-03-23T08:38:47;46.25;;;43.28;;
33644;SDS011;19986;48.190;16.366;2024-03-23T08:41:15;44.05;;;41.38;;
33644;SDS011;19986;48.190;16.366;2024-03-23T08:43:45;44.17;;;41.58;;
33644;SDS011;19986;48.190;16.366;2024-03-23T08:46:11;42.55;;;40.17;;
33644;SDS011;19986;48.190;16.366;2024-03-23T08:48:41;44.53;;;41.80;;
33644;SDS011;19986;48.190;16.366;2024-03-23T08:51:11;41.15;;;38.80;;
33644;SDS011;19986;48.190;16.366;2024-03-23T08:53:41;42.75;;;40.25;;
33644;SDS011;19986;48.190;16.366;2024-03-23T08:56:08;42.67;;;39.63;;
33644;SDS011;19986;48.190;16.366;2024-03-23T08:58:35;40.95;;;38.60;;
33644;SDS011;19986;48.190;16.366;2024-03-23T09:01:04;40.47;;;38.03;;
33644;SDS011;19986;48.190;16.366;2024-03-23T09:03:33;39.40;;;37.30;;
33644;SDS011;19986;48.190;16.366;2024-03-23T09:06:02;38.25;;;36.05;;
33644;SDS011;19986;48.190;16.366;2024-03-23T09:08:32;39.67;;;37.47;;
33644;SDS011;19986;48.190;16.366;2024-03-23T09:11:03;38.78;;;36.38;;
33644;SDS011;19986;48.190;16.366;2024-03-23T09:13:31;40.80;;;38.53;;
33644;SDS011;19986;48.190;16.366;2024-03-23T09:16:00;40.00;;;37.92;;
33644;SDS011;19986;48.190;16.366;2024-03-23T09:18:31;38.72;;;36.72;;
33644;SDS011;19986;48.190;16.366;2024-03-23T09:20:58;38.78;;;36.67;;
33644;SDS011;19986;48.190;16.366;2024-03-23T09:23:25;36.63;;;34.83;;
33644;SDS011;19986;48.190;16.366;2024-03-23T09:25:54;38.15;;;36.08;;
33644;SDS011;19986;48.190;16.366;2024-03-23T09:28:19;37.97;;;35.90;;
33644;SDS011;19986;48.190;16.366;2024-03-23T09:30:45;38.38;;;36.30;;
33644;SDS011;19986;48.190;16.366;2024-03-23T09:33:11;37.70;;;35.53;;
33644;SDS011;19986;48.190;16.366;2024-03-23T09:35:38;38.38;;;36.03;;
33644;SDS011;19986;48.190;16.366;2024-03-23T09:38:05;37.90;;;35.83;;
33644;SDS011;19986;48.190;16.366;2024-03-23T09:40:35;38.50;;;36.35;;
33644;SDS011;19986;48.190;16.366;2024-03-23T09:43:06;37.42;;;35.25;;
33644;SDS011;19986;48.190;16.366;2024-03-23T09:45:34;36.10;;;34.10;;
33644;SDS011;19986;48.190;16.366;2024-03-23T09:48:04;36.25;;;34.45;;
33644;SDS011;19986;48.190;16.366;2024-03-23T09:50:31;35.72;;;33.97;;
33644;SDS011;19986;48.190;16.366;2024-03-23T09:52:57;35.25;;;33.55;;
33644;SDS011;19986;48.190;16.366;2024-03-23T09:55:23;38.25;;;36.22;;
33644;SDS011;19986;48.190;16.366;2024-03-23T09:57:49;37.10;;;35.08;;
33644;SDS011;19986;48.190;16.366;2024-03-23T10:00:15;37.10;;;35.20;;
33644;SDS011;19986;48.190;16.366;2024-03-23T10:02:42;37.00;;;35.10;;
33644;SDS011;19986;48.190;16.366;2024-03-23T10:05:22;36.85;;;34.75;;
33644;SDS011;19986;48.190;16.366;2024-03-23T10:07:49;34.60;;;32.67;;
33644;SDS011;19986;48.190;16.366;2024-03-23T10:10:15;36.50;;;34.60;;
33644;SDS011;19986;48.190;16.366;2024-03-23T10:12:45;34.95;;;33.08;;
33644;SDS011;19986;48.190;16.366;2024-03-23T10:15:19;32.97;;;31.13;;
33644;SDS011;19986;48.190;16.366;2024-03-23T10:17:49;34.58;;;32.88;;
33644;SDS011;19986;48.190;16.366;2024-03-23T10:20:21;35.53;;;33.78;;
33644;SDS011;19986;48.190;16.366;2024-03-23T10:22:48;34.92;;;33.13;;
33644;SDS011;19986;48.190;16.366;2024-03-23T10:25:16;35.53;;;33.60;;
33644;SDS011;19986;48.190;16.366;2024-03-23T10:27:43;35.25;;;33.30;;
33644;SDS011;19986;48.190;16.366;2024-03-23T10:30:10;33.55;;;31.67;;
33644;SDS011;19986;48.190;16.366;2024-03-23T10:32:37;33.40;;;31.60;;
33644;SDS011;19986;48.190;16.366;2024-03-23T10:37:50;34.47;;;32.78;;
33644;SDS011;19986;48.190;16.366;2024-03-23T10:40:19;36.40;;;34.60;;
33644;SDS011;19986;48.190;16.366;2024-03-23T10:42:45;36.00;;;33.88;;
33644;SDS011;19986;48.190;16.366;2024-03-23T10:45:11;34.67;;;32.92;;
33644;SDS011;19986;48.190;16.366;2024-03-23T10:47:37;35.83;;;33.92;;
33644;SDS011;19986;48.190;16.366;2024-03-23T10:50:03;36.42;;;34.58;;
33644;SDS011;19986;48.190;16.366;2024-03-23T10:52:34;36.40;;;34.60;;
33644;SDS011;19986;48.190;16.366;2024-03-23T10:55:03;35.47;;;33.55;;
33644;SDS011;19986;48.190;16.366;2024-03-23T10:57:34;35.15;;;33.33;;
33644;SDS011;19986;48.190;16.366;2024-03-23T11:00:08;36.30;;;34.40;;
33644;SDS011;19986;48.190;16.366;2024-03-23T11:02:35;35.35;;;33.47;;
33644;SDS011;19986;48.190;16.366;2024-03-23T11:05:01;37.50;;;35.42;;
33644;SDS011;19986;48.190;16.366;2024-03-23T11:07:51;35.35;;;33.35;;
33644;SDS011;19986;48.190;16.366;2024-03-23T11:10:27;36.08;;;34.30;;
33644;SDS011;19986;48.190;16.366;2024-03-23T11:12:58;34.95;;;33.08;;
33644;SDS011;19986;48.190;16.366;2024-03-23T11:15:43;33.85;;;32.17;;
33644;SDS011;19986;48.190;16.366;2024-03-23T11:18:09;34.90;;;33.00;;
33644;SDS011;19986;48.190;16.366;2024-03-23T11:20:35;32.85;;;30.90;;
33644;SDS011;19986;48.190;16.366;2024-03-23T11:23:04;33.38;;;31.45;;
33644;SDS011;19986;48.190;16.366;2024-03-23T11:25:30;34.60;;;32.80;;
33644;SDS011;19986;48.190;16.366;2024-03-23T11:28:11;34.65;;;32.78;;
33644;SDS011;19986;48.190;16.366;2024-03-23T11:30:38;35.33;;;33.45;;
33644;SDS011;19986;48.190;16.366;2024-03-23T11:33:04;33.03;;;31.10;;
33644;SDS011;19986;48.190;16.366;2024-03-23T11:35:33;32.50;;;31.00;;
33644;SDS011;19986;48.190;16.366;2024-03-23T11:40:33;33.72;;;31.98;;
33644;SDS011;19986;48.190;16.366;2024-03-23T11:43:02;33.35;;;31.50;;
33644;SDS011;19986;48.190;16.366;2024-03-23T11:45:33;32.40;;;30.70;;
33644;SDS011;19986;48.190;16.366;2024-03-23T11:48:22;34.45;;;32.65;;
33644;SDS011;19986;48.190;16.366;2024-03-23T11:50:48;33.97;;;32.15;;
33644;SDS011;19986;48.190;16.366;2024-03-23T11:53:20;33.78;;;31.95;;
33644;SDS011;19986;48.190;16.366;2024-03-23T11:55:51;34.20;;;32.58;;
33644;SDS011;19986;48.190;16.366;2024-03-23T11:58:23;34.78;;;32.88;;
33644;SDS011;19986;48.190;16.366;2024-03-23T12:00:51;32.80;;;31.27;;
33644;SDS011;19986;48.190;16.366;2024-03-23T12:03:19;31.88;;;30.27;;
33644;SDS011;19986;48.190;16.366;2024-03-23T12:05:52;33.45;;;31.45;;
33644;SDS011;19986;48.190;16.366;2024-03-23T12:08:28;34.58;;;32.72;;
33644;SDS011;19986;48.190;16.366;2024-03-23T12:11:05;32.47;;;30.88;;
33644;SDS011;19986;48.190;16.366;2024-03-23T12:13:39;35.08;;;33.28;;
33644;SDS011;19986;48.190;16.366;2024-03-23T12:16:17;36.00;;;33.80;;
33644;SDS011;19986;48.190;16.366;2024-03-23T12:18:46;34.38;;;32.67;;
33644;SDS011;19986;48.190;16.366;2024-03-23T12:21:14;32.50;;;30.75;;
33644;SDS011;19986;48.190;16.366;2024-03-23T12:23:42;34.13;;;32.42;;
33644;SDS011;19986;48.190;16.366;2024-03-23T12:26:12;35.30;;;33.40;;
33644;SDS011;19986;48.190;16.366;2024-03-23T12:28:38;34.13;;;32.35;;
33644;SDS011;19986;48.190;16.366;2024-03-23T12:31:05;35.38;;;33.58;;
33644;SDS011;19986;48.190;16.366;2024-03-23T12:33:31;34.28;;;32.58;;
33644;SDS011;19986;48.190;16.366;2024-03-23T12:35:57;34.10;;;32.42;;
33644;SDS011;19986;48.190;16.366;2024-03-23T12:38:23;35.63;;;33.60;;
33644;SDS011;19986;48.190;16.366;2024-03-23T12:40:49;34.65;;;32.95;;
33644;SDS011;19986;48.190;16.366;2024-03-23T12:43:16;36.65;;;34.55;;
33644;SDS011;19986;48.190;16.366;2024-03-23T12:45:46;33.33;;;31.48;;
33644;SDS011;19986;48.190;16.366;2024-03-23T12:48:15;33.38;;;31.65;;
33644;SDS011;19986;48.190;16.366;2024-03-23T12:50:42;34.15;;;32.35;;
33644;SDS011;19986;48.190;16.366;2024-03-23T12:53:07;35.33;;;32.85;;
33644;SDS011;19986;48.190;16.366;2024-03-23T12:55:37;36.47;;;34.03;;
33644;SDS011;19986;48.190;16.366;2024-03-23T12:58:03;35.13;;;32.60;;
33644;SDS011;19986;48.190;16.366;2024-03-23T13:00:30;38.55;;;34.78;;
33644;SDS011;19986;48.190;16.366;2024-03-23T13:02:56;35.05;;;33.38;;
33644;SDS011;19986;48.190;16.366;2024-03-23T13:05:22;34.70;;;32.85;;
33644;SDS011;19986;48.190;16.366;2024-03-23T13:07:48;32.15;;;30.45;;
33644;SDS011;19986;48.190;16.366;2024-03-23T13:10:14;35.47;;;32.60;;
33644;SDS011;19986;48.190;16.366;2024-03-23T13:12:41;36.80;;;34.38;;
33644;SDS011;19986;48.190;16.366;2024-03-23T13:15:08;35.20;;;33.05;;
33644;SDS011;19986;48.190;16.366;2024-03-23T13:17:34;34.50;;;32.47;;
33644;SDS011;19986;48.190;16.366;2024-03-23T13:20:00;34.83;;;33.13;;
33644;SDS011;19986;48.190;16.366;2024-03-23T13:22:27;35.22;;;33.38;;
33644;SDS011;19986;48.190;16.366;2024-03-23T13:24:56;36.58;;;34.17;;
33644;SDS011;19986;48.190;16.366;2024-03-23T13:27:22;33.08;;;31.40;;
33644;SDS011;19986;48.190;16.366;2024-03-23T13:29:47;35.95;;;34.08;;
33644;SDS011;19986;48.190;16.366;2024-03-23T13:32:14;35.58;;;33.75;;
33644;SDS011;19986;48.190;16.366;2024-03-23T13:34:40;34.67;;;32.97;;
33644;SDS011;19986;48.190;16.366;2024-03-23T13:37:06;48.85;;;45.75;;
33644;SDS011;19986;48.190;16.366;2024-03-23T13:39:32;34.88;;;33.17;;
33644;SDS011;19986;48.190;16.366;2024-03-23T13:42:00;35.67;;;33.97;;
33644;SDS011;19986;48.190;16.366;2024-03-23T13:44:26;37.03;;;35.22;;
33644;SDS011;19986;48.190;16.366;2024-03-23T13:46:52;36.03;;;34.13;;
33644;SDS011;19986;48.190;16.366;2024-03-23T13:49:27;37.13;;;35.22;;
33644;SDS011;19986;48.190;16.366;2024-03-23T13:51:57;35.83;;;34.15;;
33644;SDS011;19986;48.190;16.366;2024-03-23T13:54:25;37.50;;;35.78;;
33644;SDS011;19986;48.190;16.366;2024-03-23T13:56:52;36.60;;;34.60;;
33644;SDS011;19986;48.190;16.366;2024-03-23T13:59:20;38.28;;;36.22;;
33644;SDS011;19986;48.190;16.366;2024-03-23T14:01:49;36.92;;;35.22;;
33644;SDS011;19986;48.190;16.366;2024-03-23T14:04:24;36.80;;;35.00;;
33644;SDS011;19986;48.190;16.366;2024-03-23T14:06:51;35.28;;;33.67;;
33644;SDS011;19986;48.190;16.366;2024-03-23T14:09:19;36.10;;;34.50;;
33644;SDS011;19986;48.190;16.366;2024-03-23T14:11:50;36.92;;;35.22;;
33644;SDS011;19986;48.190;16.366;2024-03-23T14:14:19;37.03;;;35.40;;
33644;SDS011;19986;48.190;16.366;2024-03-23T14:16:47;38.38;;;36.58;;
33644;SDS011;19986;48.190;16.366;2024-03-23T14:19:14;37.92;;;36.03;;
33644;SDS011;19986;48.190;16.366;2024-03-23T14:22:00;36.63;;;34.90;;
33644;SDS011;19986;48.190;16.366;2024-03-23T14:24:26;38.95;;;37.05;;
33644;SDS011;19986;48.190;16.366;2024-03-23T14:26:53;37.75;;;35.85;;
33644;SDS011;19986;48.190;16.366;2024-03-23T14:29:18;38.28;;;36.58;;
33644;SDS011;19986;48.190;16.366;2024-03-23T14:31:44;36.25;;;34.35;;
33644;SDS011;19986;48.190;16.366;2024-03-23T14:34:10;40.72;;;38.72;;
33644;SDS011;19986;48.190;16.366;2024-03-23T14:36:36;39.83;;;38.00;;
33644;SDS011;19986;48.190;16.366;2024-03-23T14:39:05;39.97;;;38.15;;
33644;SDS011;19986;48.190;16.366;2024-03-23T14:41:31;40.08;;;38.05;;
33644;SDS011;19986;48.190;16.366;2024-03-23T14:43:57;36.65;;;34.95;;
33644;SDS011;19986;48.190;16.366;2024-03-23T14:46:27;42.63;;;40.72;;
33644;SDS011;19986;48.190;16.366;2024-03-23T14:48:53;40.58;;;38.67;;
33644;SDS011;19986;48.190;16.366;2024-03-23T14:51:19;39.80;;;37.92;;
33644;SDS011;19986;48.190;16.366;2024-03-23T14:53:47;39.08;;;37.28;;
33644;SDS011;19986;48.190;16.366;2024-03-23T14:56:13;41.03;;;39.22;;
33644;SDS011;19986;48.190;16.366;2024-03-23T14:58:40;40.30;;;38.50;;
33644;SDS011;19986;48.190;16.366;2024-03-23T15:01:07;39.05;;;37.35;;
33644;SDS011;19986;48.190;16.366;2024-03-23T15:03:37;39.70;;;37.63;;
33644;SDS011;19986;48.190;16.366;2024-03-23T15:06:04;39.22;;;37.53;;
33644;SDS011;19986;48.190;16.366;2024-03-23T15:08:34;41.53;;;39.63;;
33644;SDS011;19986;48.190;16.366;2024-03-23T15:11:02;39.65;;;37.85;;